Bapchule, Arizona
Current Conditions -  °F | °C
As of 2:47 PM on Saturday 25 Oct 2014 (Local Time) from KCHD Reporting Station
Broken Clouds Broken Clouds  
Wind Chill: 93°   Ceiling: 15000
Heat Index: 93°   Visibility: 40mi
Dew Point: 52°   Wind: 6mph
Humidity: 24%   Direction: 270°W
Pressure: 29.94"   Gusts: NA
Location:  33.14°N, 111.87°W
Report Text: KCHD 252147Z 27005KT 40SM BKN150 34/11 A2994
Loading
Personal Weather Stations






























Interactive Weather Map
Tropical Storm Tracking
New forecast layout! Learn more

10-Day Weather Forecast

Advertisements
Track Severe Weather on mobile